createdAt,value
2022-12-27T00:01:35.424Z,0.60
2022-12-27T00:04:02.486Z,0.90
2022-12-27T00:06:29.937Z,0.90
2022-12-27T00:08:58.474Z,0.60
2022-12-27T00:11:29.665Z,0.73
2022-12-27T00:14:01.116Z,0.63
2022-12-27T00:16:28.582Z,0.60
2022-12-27T00:18:56.059Z,0.70
2022-12-27T00:21:23.860Z,0.60
2022-12-27T00:23:55.149Z,0.90
2022-12-27T00:26:27.001Z,0.60
2022-12-27T00:28:54.911Z,0.80
2022-12-27T00:31:23.658Z,0.60
2022-12-27T00:33:54.342Z,0.70
2022-12-27T00:36:25.853Z,0.60
2022-12-27T00:38:54.601Z,0.80
2022-12-27T00:41:21.667Z,0.70
2022-12-27T00:43:49.675Z,0.83
2022-12-27T00:46:17.534Z,0.63
2022-12-27T00:48:44.512Z,0.70
2022-12-27T00:51:23.557Z,0.87
2022-12-27T00:53:52.787Z,0.80
2022-12-27T00:56:30.801Z,0.70
2022-12-27T00:59:01.938Z,1.30
2022-12-27T01:01:33.031Z,0.70
2022-12-27T01:04:00.491Z,0.70
2022-12-27T01:06:32.433Z,0.80
2022-12-27T01:09:02.112Z,1.00
2022-12-27T01:11:30.270Z,0.90
2022-12-27T01:14:00.701Z,1.17
2022-12-27T01:16:30.017Z,0.90
2022-12-27T01:18:57.593Z,0.90
2022-12-27T01:21:25.503Z,1.00
2022-12-27T01:23:52.538Z,0.70
2022-12-27T01:26:23.063Z,1.00
2022-12-27T01:28:51.168Z,0.90
2022-12-27T01:31:22.558Z,0.83
2022-12-27T01:33:50.093Z,1.00
2022-12-27T01:36:21.955Z,0.87
2022-12-27T01:38:49.906Z,0.77
2022-12-27T01:42:02.409Z,1.00
2022-12-27T01:44:50.064Z,0.80
2022-12-27T01:47:25.904Z,1.30
2022-12-27T01:50:07.972Z,0.80
2022-12-27T01:53:07.032Z,0.97
2022-12-27T01:55:43.457Z,1.00
2022-12-27T01:58:23.139Z,1.20
2022-12-27T02:00:51.074Z,0.87
2022-12-27T02:04:04.303Z,0.90
2022-12-27T02:06:33.342Z,1.10
2022-12-27T02:09:23.069Z,1.10
2022-12-27T02:11:57.250Z,0.90
2022-12-27T02:14:47.293Z,0.90
2022-12-27T02:17:20.468Z,1.10
2022-12-27T02:20:04.305Z,0.80
2022-12-27T02:23:27.065Z,0.90
2022-12-27T02:26:12.017Z,1.10
2022-12-27T02:29:16.824Z,0.93
2022-12-27T02:32:04.366Z,0.70
2022-12-27T02:34:40.012Z,0.87
2022-12-27T02:37:11.325Z,0.90
2022-12-27T02:39:44.010Z,1.03
2022-12-27T02:42:30.778Z,1.00
2022-12-27T02:45:16.620Z,0.80
2022-12-27T02:48:08.171Z,0.80
2022-12-27T02:51:29.048Z,1.07
2022-12-27T02:54:36.815Z,0.90
2022-12-27T02:57:45.773Z,1.33
2022-12-27T03:00:39.370Z,1.20
2022-12-27T03:03:29.160Z,1.10
2022-12-27T03:06:41.868Z,1.00
2022-12-27T03:09:55.376Z,0.90
2022-12-27T03:13:50.396Z,1.10
2022-12-27T03:16:55.770Z,0.93
2022-12-27T03:20:07.687Z,0.90
2022-12-27T03:22:56.588Z,0.90
2022-12-27T03:25:31.249Z,1.00
2022-12-27T03:28:43.633Z,0.80
2022-12-27T03:31:48.211Z,0.80
2022-12-27T03:34:36.215Z,0.90
2022-12-27T03:37:30.594Z,1.10
2022-12-27T03:40:39.954Z,0.97
2022-12-27T03:43:15.400Z,0.90
2022-12-27T03:46:15.764Z,1.10
2022-12-27T03:49:16.247Z,0.90
2022-12-27T03:52:26.134Z,1.00
2022-12-27T03:54:54.347Z,1.03
2022-12-27T03:57:25.092Z,1.30
2022-12-27T03:59:52.308Z,1.27
2022-12-27T04:02:20.334Z,1.00
2022-12-27T04:04:47.987Z,1.43
2022-12-27T04:07:16.407Z,1.13
2022-12-27T04:10:02.241Z,1.40
2022-12-27T04:12:47.495Z,1.00
2022-12-27T04:15:33.359Z,0.90
2022-12-27T04:18:18.683Z,1.17
2022-12-27T04:21:03.863Z,0.83
2022-12-27T04:23:49.182Z,1.00
2022-12-27T04:26:34.575Z,0.83
2022-12-27T04:29:20.642Z,1.10
2022-12-27T04:32:05.902Z,0.90
2022-12-27T04:34:44.804Z,1.00
2022-12-27T04:37:18.898Z,0.90
2022-12-27T04:40:08.022Z,0.90
2022-12-27T04:42:53.772Z,1.17
2022-12-27T04:45:40.130Z,1.40
2022-12-27T04:48:32.457Z,1.00
2022-12-27T04:51:19.394Z,1.20
2022-12-27T04:54:04.760Z,1.33
2022-12-27T04:56:31.770Z,1.10
2022-12-27T04:59:17.443Z,1.33
2022-12-27T05:02:19.878Z,1.00
2022-12-27T05:04:48.590Z,1.17
2022-12-27T05:07:35.106Z,0.80
2022-12-27T05:10:23.967Z,1.57
2022-12-27T05:13:09.629Z,1.03
2022-12-27T05:15:36.677Z,1.70
2022-12-27T05:18:03.976Z,1.27
2022-12-27T05:20:30.877Z,1.20
2022-12-27T05:23:16.260Z,1.40
2022-12-27T05:25:46.772Z,1.00
2022-12-27T05:28:13.769Z,1.20
2022-12-27T05:30:43.541Z,1.10
2022-12-27T05:33:10.892Z,1.60
2022-12-27T05:35:37.937Z,1.27
2022-12-27T05:38:05.292Z,1.43
2022-12-27T05:40:33.679Z,1.33
2022-12-27T05:43:02.544Z,1.60
2022-12-27T05:45:30.295Z,1.73
2022-12-27T05:48:00.104Z,1.50
2022-12-27T05:50:27.686Z,1.80
2022-12-27T05:52:56.185Z,1.50
2022-12-27T05:55:23.321Z,1.30
2022-12-27T05:57:50.276Z,1.80
2022-12-27T06:00:17.631Z,1.23
2022-12-27T06:02:44.762Z,1.43
2022-12-27T06:05:11.799Z,1.80
2022-12-27T06:07:39.477Z,1.80
2022-12-27T06:10:09.325Z,1.20
2022-12-27T06:12:37.303Z,1.60
2022-12-27T06:15:06.620Z,1.80
2022-12-27T06:17:33.767Z,1.73
2022-12-27T06:20:00.699Z,1.80
2022-12-27T06:22:27.692Z,1.70
2022-12-27T06:24:54.580Z,1.53
2022-12-27T06:27:21.551Z,1.40
2022-12-27T06:29:48.565Z,1.50
2022-12-27T06:32:18.017Z,1.40
2022-12-27T06:34:45.481Z,1.33
2022-12-27T06:37:12.639Z,1.40
2022-12-27T06:39:39.697Z,1.33
2022-12-27T06:42:06.622Z,2.03
2022-12-27T06:44:33.613Z,1.60
2022-12-27T06:47:00.583Z,1.50
2022-12-27T06:49:27.622Z,1.20
2022-12-27T06:51:59.513Z,1.30
2022-12-27T06:54:27.160Z,1.50
2022-12-27T06:56:55.768Z,1.90
2022-12-27T06:59:24.353Z,1.37
2022-12-27T07:01:51.466Z,1.50
2022-12-27T07:04:18.580Z,2.17
2022-12-27T07:06:45.556Z,1.90
2022-12-27T07:09:12.555Z,2.13
2022-12-27T07:11:39.702Z,1.47
2022-12-27T07:14:09.760Z,2.20
2022-12-27T07:16:37.686Z,2.07
2022-12-27T07:19:05.050Z,2.20
2022-12-27T07:21:32.029Z,2.40
2022-12-27T07:23:59.067Z,2.37
2022-12-27T07:26:30.492Z,1.80
2022-12-27T07:29:01.651Z,2.70
2022-12-27T07:31:32.360Z,2.70
2022-12-27T07:34:02.737Z,2.40
2022-12-27T07:36:35.388Z,4.40
2022-12-27T07:39:03.853Z,4.47
2022-12-27T07:41:30.845Z,3.20
2022-12-27T07:43:58.115Z,2.90
2022-12-27T07:46:26.951Z,2.10
2022-12-27T07:48:56.587Z,2.23
2022-12-27T07:51:25.662Z,2.20
2022-12-27T07:53:52.793Z,2.70
2022-12-27T07:56:28.164Z,2.67
2022-12-27T07:58:58.412Z,1.87
2022-12-27T08:01:28.805Z,2.27
2022-12-27T08:03:56.642Z,2.10
2022-12-27T08:06:34.519Z,3.97
2022-12-27T08:09:06.247Z,3.50
2022-12-27T08:11:33.200Z,3.10
2022-12-27T08:14:00.167Z,5.03
2022-12-27T08:16:27.603Z,3.53
2022-12-27T08:18:54.668Z,3.50
2022-12-27T08:21:21.902Z,3.50
2022-12-27T08:23:48.888Z,3.40
2022-12-27T08:26:16.167Z,2.97
2022-12-27T08:28:43.540Z,6.50
2022-12-27T08:31:13.193Z,11.20
2022-12-27T08:33:42.233Z,5.77
2022-12-27T08:36:45.326Z,5.50
2022-12-27T08:38:59.996Z,2.80
2022-12-27T08:41:26.981Z,2.37
2022-12-27T08:43:53.891Z,2.27
2022-12-27T08:46:20.961Z,4.20
2022-12-27T08:48:50.086Z,2.93
2022-12-27T08:51:29.994Z,1.80
2022-12-27T08:54:00.720Z,2.20
2022-12-27T08:56:27.681Z,2.20
2022-12-27T08:58:54.740Z,1.43
2022-12-27T09:01:22.728Z,1.93
2022-12-27T09:03:49.852Z,2.33
2022-12-27T09:06:23.623Z,2.30
2022-12-27T09:08:52.468Z,2.33
2022-12-27T09:11:33.441Z,2.00
2022-12-27T09:14:04.793Z,1.67
2022-12-27T09:16:34.342Z,1.40
2022-12-27T09:19:02.868Z,1.40
2022-12-27T09:21:33.129Z,1.70
2022-12-27T09:24:00.171Z,1.70
2022-12-27T09:26:30.959Z,2.07
2022-12-27T09:28:59.472Z,1.50
2022-12-27T09:31:27.835Z,1.33
2022-12-27T09:33:56.120Z,1.20
2022-12-27T09:36:28.349Z,1.20
2022-12-27T09:38:57.839Z,0.90
2022-12-27T09:44:51.881Z,1.20
2022-12-27T09:47:54.142Z,1.03
2022-12-27T09:50:31.777Z,1.53
2022-12-27T09:53:12.869Z,1.37
2022-12-27T09:55:47.848Z,1.00
2022-12-27T09:58:42.813Z,1.83
2022-12-27T10:01:49.258Z,2.20
2022-12-27T10:04:19.766Z,1.40
2022-12-27T10:07:03.329Z,1.20
2022-12-27T10:09:36.019Z,1.00
2022-12-27T10:12:35.180Z,1.40
2022-12-27T10:15:35.537Z,1.33
2022-12-27T10:18:18.487Z,1.50
2022-12-27T10:21:15.902Z,1.40
2022-12-27T10:23:50.681Z,1.07
2022-12-27T10:26:20.648Z,1.10
2022-12-27T10:29:13.290Z,1.23
2022-12-27T10:31:43.446Z,1.37
2022-12-27T10:34:16.977Z,1.13
2022-12-27T10:36:45.737Z,1.40
2022-12-27T10:39:28.951Z,1.20
2022-12-27T10:42:07.733Z,1.10
2022-12-27T10:44:34.897Z,1.33
2022-12-27T10:47:02.461Z,1.50
2022-12-27T10:49:33.046Z,1.10
2022-12-27T10:52:18.444Z,1.37
2022-12-27T10:54:57.319Z,1.10
2022-12-27T10:57:34.435Z,1.20
2022-12-27T11:00:21.670Z,1.33
2022-12-27T11:03:00.889Z,1.00
2022-12-27T11:05:34.051Z,1.27
2022-12-27T11:08:19.889Z,1.50
2022-12-27T11:10:46.948Z,1.13
2022-12-27T11:13:19.621Z,1.40
2022-12-27T11:15:59.032Z,1.57
2022-12-27T11:18:26.877Z,1.20
2022-12-27T11:20:58.223Z,1.57
2022-12-27T11:23:35.659Z,1.33
2022-12-27T11:26:06.787Z,1.57
2022-12-27T11:28:53.149Z,1.70
2022-12-27T11:31:32.196Z,5.73
2022-12-27T11:34:05.310Z,5.17
2022-12-27T11:36:37.412Z,2.10
2022-12-27T11:39:05.638Z,2.80
2022-12-27T11:41:50.256Z,2.80
2022-12-27T11:44:25.176Z,4.20
2022-12-27T11:47:30.969Z,2.70
2022-12-27T11:50:48.691Z,3.47
2022-12-27T11:53:40.591Z,4.07
2022-12-27T11:56:25.517Z,3.67
2022-12-27T11:59:26.648Z,3.20
2022-12-27T12:02:28.155Z,2.87
2022-12-27T12:05:19.885Z,2.50
2022-12-27T12:08:30.969Z,2.73
2022-12-27T12:11:06.910Z,3.37
2022-12-27T12:14:12.220Z,2.03
2022-12-27T12:17:00.034Z,2.60
2022-12-27T12:19:48.603Z,2.80
2022-12-27T12:22:27.204Z,2.97
2022-12-27T12:25:42.136Z,3.47
2022-12-27T12:29:07.770Z,2.43
2022-12-27T12:32:05.502Z,3.10
2022-12-27T12:34:50.867Z,2.03
2022-12-27T12:38:11.284Z,1.20
2022-12-27T12:41:12.087Z,1.80
2022-12-27T12:44:24.510Z,2.27
2022-12-27T12:46:54.431Z,1.63
2022-12-27T12:49:45.720Z,1.60
2022-12-27T12:52:43.599Z,1.80
2022-12-27T12:55:38.447Z,1.67
2022-12-27T12:59:01.992Z,2.70
2022-12-27T13:01:51.149Z,2.20
2022-12-27T13:04:59.824Z,2.00
2022-12-27T13:08:13.711Z,2.70
2022-12-27T13:10:48.045Z,2.10
2022-12-27T13:13:40.200Z,3.30
2022-12-27T13:17:15.548Z,1.60
2022-12-27T13:20:29.861Z,1.80
2022-12-27T13:23:08.401Z,1.77
2022-12-27T13:26:08.580Z,1.93
2022-12-27T13:29:06.652Z,1.93
2022-12-27T13:31:58.263Z,1.10
2022-12-27T13:35:14.951Z,1.57
2022-12-27T13:38:33.620Z,1.30
2022-12-27T13:41:30.903Z,1.00
2022-12-27T13:44:17.229Z,1.80
2022-12-27T13:47:12.735Z,1.30
2022-12-27T13:50:11.591Z,1.10
2022-12-27T13:52:59.442Z,1.60
2022-12-27T13:55:56.258Z,1.50
2022-12-27T13:58:25.834Z,1.50
2022-12-27T14:01:23.294Z,1.73
2022-12-27T14:04:08.215Z,1.67
2022-12-27T14:06:50.330Z,1.93
2022-12-27T14:10:16.443Z,2.07
2022-12-27T14:13:09.971Z,1.37
2022-12-27T14:16:17.573Z,1.23
2022-12-27T14:19:12.702Z,1.00
2022-12-27T14:21:54.659Z,1.33
2022-12-27T14:24:43.193Z,1.37
2022-12-27T14:27:39.391Z,1.13
2022-12-27T14:30:56.100Z,1.17
2022-12-27T14:33:47.833Z,2.03
2022-12-27T14:36:47.540Z,2.20
2022-12-27T14:39:48.517Z,1.47
2022-12-27T14:42:30.451Z,1.93
2022-12-27T14:45:18.660Z,1.30
2022-12-27T14:48:20.457Z,1.50
2022-12-27T14:52:03.482Z,1.30
2022-12-27T14:55:24.380Z,1.67
2022-12-27T14:58:10.531Z,1.70
2022-12-27T15:01:08.622Z,1.60
2022-12-27T15:04:02.021Z,1.90
2022-12-27T15:06:43.950Z,2.83
2022-12-27T15:09:42.154Z,3.10
2022-12-27T15:12:45.510Z,2.50
2022-12-27T15:15:58.653Z,2.77
2022-12-27T15:19:09.897Z,1.90
2022-12-27T15:21:52.199Z,2.30
2022-12-27T15:24:35.460Z,2.27
2022-12-27T15:27:16.412Z,2.20
2022-12-27T15:30:19.737Z,2.10
2022-12-27T15:32:53.381Z,2.60
2022-12-27T15:35:48.319Z,2.87
2022-12-27T15:38:41.438Z,2.63
2022-12-27T15:41:08.748Z,3.77
2022-12-27T15:44:06.431Z,4.27
2022-12-27T15:47:06.848Z,4.20
2022-12-27T15:49:55.681Z,4.63
2022-12-27T15:52:38.159Z,4.23
2022-12-27T15:55:19.495Z,4.43
2022-12-27T15:58:15.180Z,4.77
2022-12-27T16:00:44.886Z,4.87
2022-12-27T16:03:40.045Z,5.30
2022-12-27T16:06:09.902Z,6.67
2022-12-27T16:08:40.359Z,6.27
2022-12-27T16:11:13.542Z,6.83
2022-12-27T16:13:48.544Z,5.47
2022-12-27T16:16:28.281Z,5.47
2022-12-27T16:19:01.463Z,5.97
2022-12-27T16:21:40.199Z,6.63
2022-12-27T16:24:19.657Z,5.40
2022-12-27T16:26:56.424Z,6.83
2022-12-27T16:29:32.566Z,5.67
2022-12-27T16:32:28.588Z,6.27
2022-12-27T16:35:15.709Z,6.00
2022-12-27T16:37:52.619Z,6.70
2022-12-27T16:40:42.490Z,7.27
2022-12-27T16:43:09.309Z,8.57
2022-12-27T16:45:53.959Z,10.30
2022-12-27T16:48:52.489Z,8.80
2022-12-27T16:51:41.995Z,11.33
2022-12-27T16:54:25.119Z,11.43
2022-12-27T16:57:23.967Z,12.60
2022-12-27T17:00:25.939Z,11.57
2022-12-27T17:02:53.551Z,11.00
2022-12-27T17:05:27.154Z,10.33
2022-12-27T17:07:55.977Z,11.67
2022-12-27T17:10:30.279Z,12.23
2022-12-27T17:13:11.345Z,13.67
2022-12-27T17:15:49.847Z,12.57
2022-12-27T17:18:58.018Z,13.37
2022-12-27T17:21:38.740Z,11.53
2022-12-27T17:24:20.999Z,12.03
2022-12-27T17:27:21.758Z,10.70
2022-12-27T17:30:13.358Z,10.57
2022-12-27T17:40:28.406Z,8.43
2022-12-27T17:43:59.986Z,8.97
2022-12-27T17:46:44.648Z,9.57
2022-12-27T17:49:11.766Z,15.80
2022-12-27T17:52:02.528Z,16.93
2022-12-27T17:54:49.635Z,14.50
2022-12-27T17:57:38.874Z,12.70
2022-12-27T18:00:21.446Z,12.60
2022-12-27T18:02:50.065Z,9.60
2022-12-27T18:05:22.043Z,8.83
2022-12-27T18:08:03.176Z,10.00
2022-12-27T18:10:31.758Z,9.93
2022-12-27T18:13:02.596Z,11.93
2022-12-27T18:15:34.395Z,12.13
2022-12-27T18:18:07.795Z,11.67
2022-12-27T18:20:38.329Z,10.67
2022-12-27T18:23:06.282Z,10.40
2022-12-27T18:25:42.854Z,10.87
2022-12-27T18:28:16.784Z,10.63
2022-12-27T18:30:47.871Z,9.83
2022-12-27T18:33:17.621Z,9.40
2022-12-27T18:35:50.426Z,10.07
2022-12-27T18:38:33.173Z,9.47
2022-12-27T18:41:25.825Z,8.40
2022-12-27T18:44:01.319Z,10.70
2022-12-27T18:46:38.826Z,9.80
2022-12-27T18:49:07.029Z,10.07
2022-12-27T18:51:39.553Z,10.70
2022-12-27T18:54:34.881Z,13.30
2022-12-27T18:57:07.396Z,13.80
2022-12-27T18:59:36.428Z,16.50
2022-12-27T19:02:41.487Z,16.13
2022-12-27T19:05:25.513Z,15.90
2022-12-27T19:08:12.719Z,14.93
2022-12-27T19:10:49.508Z,15.57
2022-12-27T19:13:29.912Z,15.30
2022-12-27T19:15:58.228Z,16.47
2022-12-27T19:18:36.144Z,14.70
2022-12-27T19:21:06.591Z,14.80
2022-12-27T19:23:39.443Z,13.80
2022-12-27T19:26:15.699Z,14.70
2022-12-27T19:29:02.137Z,13.37
2022-12-27T19:31:29.597Z,12.80
2022-12-27T19:34:06.258Z,15.70
2022-12-27T19:36:38.551Z,13.70
2022-12-27T19:39:30.059Z,13.10
2022-12-27T19:42:00.761Z,29.50
2022-12-27T19:44:30.848Z,23.90
2022-12-27T19:46:59.501Z,16.30
2022-12-27T19:49:44.047Z,16.27
2022-12-27T19:52:21.152Z,15.77
2022-12-27T19:54:50.311Z,17.20
2022-12-27T19:57:17.491Z,13.33
2022-12-27T19:59:44.550Z,14.53
2022-12-27T20:02:12.148Z,13.47
2022-12-27T20:04:39.540Z,14.07
2022-12-27T20:07:06.647Z,10.90
2022-12-27T20:09:43.309Z,11.47
2022-12-27T20:12:12.305Z,10.90
2022-12-27T20:14:39.499Z,11.03
2022-12-27T20:17:06.662Z,9.40
2022-12-27T20:19:33.794Z,9.70
2022-12-27T20:22:01.117Z,9.30
2022-12-27T20:24:28.646Z,9.07
2022-12-27T20:26:55.604Z,9.10
2022-12-27T20:29:23.595Z,8.43
2022-12-27T20:31:52.557Z,10.70
2022-12-27T20:34:19.672Z,10.50
2022-12-27T20:36:46.604Z,9.50
2022-12-27T20:39:13.626Z,10.80
2022-12-27T20:41:40.619Z,10.33
2022-12-27T20:44:07.586Z,9.97
2022-12-27T20:46:34.932Z,11.60
2022-12-27T20:49:08.673Z,12.27
2022-12-27T20:51:37.464Z,11.07
2022-12-27T20:54:05.160Z,10.63
2022-12-27T20:56:32.503Z,12.77
2022-12-27T20:58:59.526Z,12.73
2022-12-27T21:01:27.309Z,12.00
2022-12-27T21:03:57.017Z,11.90
2022-12-27T21:06:28.592Z,14.70
2022-12-27T21:08:57.651Z,14.10
2022-12-27T21:11:32.349Z,13.83
2022-12-27T21:14:03.012Z,12.97
2022-12-27T21:16:34.397Z,12.93
2022-12-27T21:19:03.658Z,13.57
2022-12-27T21:21:32.999Z,13.93
2022-12-27T21:24:00.432Z,12.27
2022-12-27T21:26:34.053Z,12.47
2022-12-27T21:29:04.090Z,13.40
2022-12-27T21:31:32.534Z,13.07
2022-12-27T21:34:00.407Z,12.70
2022-12-27T21:36:31.879Z,12.80
2022-12-27T21:38:59.305Z,12.20
2022-12-27T21:41:30.963Z,12.73
2022-12-27T21:43:58.021Z,14.33
2022-12-27T21:46:31.582Z,12.93
2022-12-27T21:49:02.302Z,13.40
2022-12-27T21:51:31.696Z,13.43
2022-12-27T21:53:59.227Z,12.83
2022-12-27T21:56:26.750Z,13.50
2022-12-27T21:58:55.749Z,13.17
2022-12-27T22:01:51.581Z,13.10
2022-12-27T22:04:18.850Z,11.77
2022-12-27T22:06:47.583Z,12.27
2022-12-27T22:09:15.297Z,12.00
2022-12-27T22:11:42.727Z,10.07
2022-12-27T22:14:09.756Z,9.43
2022-12-27T22:16:39.303Z,8.57
2022-12-27T22:19:11.333Z,8.43
2022-12-27T22:21:41.061Z,7.77
2022-12-27T22:24:13.468Z,7.73
2022-12-27T22:26:41.941Z,8.37
2022-12-27T22:29:08.978Z,7.40
2022-12-27T22:31:38.340Z,8.77
2022-12-27T22:34:06.659Z,8.60
2022-12-27T22:36:34.920Z,9.23
2022-12-27T22:39:02.591Z,7.30
2022-12-27T22:41:33.767Z,7.73
2022-12-27T22:44:08.168Z,10.10
2022-12-27T22:47:24.568Z,8.60
2022-12-27T22:49:23.396Z,8.33
2022-12-27T22:51:50.328Z,11.53
2022-12-27T22:54:17.290Z,11.47
2022-12-27T22:56:44.821Z,12.40
2022-12-27T22:59:16.844Z,11.00
2022-12-27T23:01:46.225Z,8.90
2022-12-27T23:04:14.805Z,9.80
2022-12-27T23:06:42.699Z,11.57
2022-12-27T23:09:10.571Z,10.20
2022-12-27T23:11:43.840Z,11.00
2022-12-27T23:14:18.418Z,11.27
2022-12-27T23:16:49.275Z,11.50
2022-12-27T23:19:20.876Z,11.80
2022-12-27T23:21:48.789Z,12.60
2022-12-27T23:24:16.682Z,13.17
2022-12-27T23:26:44.159Z,11.37
2022-12-27T23:29:12.988Z,15.23
2022-12-27T23:31:54.850Z,14.40
2022-12-27T23:34:28.315Z,14.10
2022-12-27T23:36:58.270Z,17.13
2022-12-27T23:39:25.817Z,14.40
2022-12-27T23:41:53.217Z,13.67
2022-12-27T23:44:34.366Z,14.57
2022-12-27T23:47:05.259Z,14.47
2022-12-27T23:49:32.627Z,16.30
2022-12-27T23:51:59.675Z,13.70
2022-12-27T23:54:26.667Z,15.20
2022-12-27T23:56:53.666Z,13.17
2022-12-27T23:59:20.824Z,14.27
